Time;durP1;ratioP1;P1;durP2;ratioP2;P2;SDS_P1;SDS_P2;PMS_P1;PMS_P2;Temp;Humidity;BMP_temperature;BMP_pressure;BME280_temperature;BME280_humidity;BME280_pressure;Samples;Min_cycle;Max_cycle;Signal;HPM_P1;HPM_P2
2022/09/13 00:00:58;;;;;;;9.00;6.85;;;;;;;16.44;100.00;100839.59;5230148;28;20410;-71
2022/09/13 00:03:30;;;;;;;10.38;6.72;;;;;;;16.33;100.00;100841.69;5239957;28;20433;-72
2022/09/13 00:06:13;;;;;;;10.25;6.40;;;;;;;16.33;100.00;100836.28;5242894;28;20099;-71
2022/09/13 00:08:45;;;;;;;9.02;7.32;;;;;;;16.27;100.00;100841.28;5237943;28;20450;-72
2022/09/13 00:11:23;;;;;;;9.65;7.70;;;;;;;16.28;100.00;100852.94;5229681;28;20034;-71
2022/09/13 00:13:55;;;;;;;9.52;6.72;;;;;;;16.37;100.00;100848.44;5225719;28;20029;-71
2022/09/13 00:16:28;;;;;;;9.00;7.22;;;;;;;16.27;100.00;100843.97;5233049;28;20056;-72
2022/09/13 00:19:00;;;;;;;8.52;7.00;;;;;;;16.38;100.00;100847.47;5230626;28;20037;-72
2022/09/13 00:21:31;;;;;;;12.35;7.20;;;;;;;16.27;100.00;100829.69;5234588;28;20032;-72
2022/09/13 00:24:02;;;;;;;9.65;7.30;;;;;;;16.27;100.00;100833.22;5230536;28;20030;-71
2022/09/13 00:26:34;;;;;;;10.75;7.22;;;;;;;16.31;100.00;100822.16;5226736;28;20034;-72
2022/09/13 00:29:05;;;;;;;11.63;7.63;;;;;;;16.36;100.00;100826.06;5229977;28;20108;-71
2022/09/13 00:31:36;;;;;;;8.23;6.80;;;;;;;16.33;100.00;100830.91;5241165;28;20029;-71
2022/09/13 00:34:08;;;;;;;10.35;7.80;;;;;;;16.39;100.00;100830.28;5236050;28;20057;-72
2022/09/13 00:36:39;;;;;;;8.68;6.75;;;;;;;16.33;100.00;100818.28;5230124;28;20030;-71
2022/09/13 00:39:11;;;;;;;9.07;7.00;;;;;;;16.39;100.00;100825.72;5236262;28;20045;-72
2022/09/13 00:41:42;;;;;;;9.75;7.38;;;;;;;16.34;100.00;100819.13;5236556;28;20108;-71
2022/09/13 00:44:44;;;;;;;8.95;6.85;;;;;;;16.42;100.00;100813.81;5241841;28;20045;-72
2022/09/13 00:47:23;;;;;;;9.55;7.35;;;;;;;16.35;100.00;100810.91;5225239;28;20484;-71
2022/09/13 00:50:06;;;;;;;9.40;7.00;;;;;;;16.41;100.00;100812.13;5227142;28;20071;-72
2022/09/13 00:52:39;;;;;;;9.77;7.35;;;;;;;16.33;100.00;100806.69;5246471;28;20101;-71
2022/09/13 00:55:20;;;;;;;8.10;7.00;;;;;;;16.43;100.00;100793.94;5239021;28;20482;-71
2022/09/13 00:57:54;;;;;;;9.32;7.10;;;;;;;16.36;100.00;100795.59;5230738;28;20479;-71
2022/09/13 01:00:25;;;;;;;8.68;7.72;;;;;;;16.31;100.00;100804.13;5240679;28;20028;-70
2022/09/13 01:03:04;;;;;;;9.05;7.82;;;;;;;16.36;100.00;100799.13;5246050;28;20033;-71
2022/09/13 01:05:42;;;;;;;10.50;6.95;;;;;;;16.44;100.00;100793.81;5236867;28;20030;-71
2022/09/13 01:08:21;;;;;;;10.73;7.95;;;;;;;16.39;100.00;100800.66;5237075;28;20050;-71
2022/09/13 01:10:55;;;;;;;11.00;7.18;;;;;;;16.44;100.00;100801.03;5232987;28;20029;-71
2022/09/13 01:13:32;;;;;;;7.93;6.80;;;;;;;16.33;100.00;100799.44;5239244;28;20029;-71
2022/09/13 01:16:04;;;;;;;10.77;7.32;;;;;;;16.32;100.00;100799.59;5236785;28;20091;-72
2022/09/13 01:18:35;;;;;;;10.57;6.95;;;;;;;16.29;100.00;100789.16;5237872;28;20025;-71
2022/09/13 01:21:30;;;;;;;12.60;7.20;;;;;;;16.42;100.00;100794.97;5229969;28;20061;-71
2022/09/13 01:24:16;;;;;;;10.82;7.65;;;;;;;16.33;100.00;100793.22;5236079;28;20783;-71
2022/09/13 01:27:20;;;;;;;9.52;6.75;;;;;;;16.37;100.00;100794.59;5232426;28;20036;-71
2022/09/13 01:30:10;;;;;;;8.93;6.57;;;;;;;16.31;100.00;100792.53;5227698;28;20056;-71
2022/09/13 01:32:42;;;;;;;9.90;6.90;;;;;;;16.29;100.00;100789.97;5220602;28;20040;-71
2022/09/13 01:35:38;;;;;;;9.98;7.43;;;;;;;16.30;100.00;100788.13;5223143;28;20029;-71
2022/09/13 01:38:48;;;;;;;10.13;6.95;;;;;;;16.40;100.00;100786.22;5219985;28;20827;-71
2022/09/13 01:41:52;;;;;;;12.27;7.00;;;;;;;16.45;100.00;100784.75;5224998;28;20415;-71
2022/09/13 01:44:54;;;;;;;7.55;6.60;;;;;;;16.29;100.00;100784.59;5217269;28;20053;-71
2022/09/13 01:47:48;;;;;;;9.57;7.50;;;;;;;16.35;100.00;100786.66;5222116;28;20127;-71
2022/09/13 01:50:29;;;;;;;9.18;7.43;;;;;;;16.31;100.00;100781.75;5222380;28;20056;-71
2022/09/13 01:53:38;;;;;;;8.13;7.25;;;;;;;16.33;100.00;100777.06;5224859;28;20037;-71
2022/09/13 01:56:20;;;;;;;9.10;7.22;;;;;;;16.28;100.00;100772.16;5220605;28;20037;-71
2022/09/13 01:58:57;;;;;;;8.60;7.05;;;;;;;16.33;100.00;100782.44;5219126;28;20414;-71
2022/09/13 02:01:39;;;;;;;15.85;7.60;;;;;;;16.31;100.00;100773.69;5222749;28;20109;-71
2022/09/13 02:04:18;;;;;;;9.60;6.88;;;;;;;16.29;100.00;100778.38;5223272;28;20316;-71
2022/09/13 02:06:59;;;;;;;7.82;6.72;;;;;;;16.27;100.00;100778.53;5224649;28;20084;-71
2022/09/13 02:09:35;;;;;;;8.88;6.95;;;;;;;16.30;100.00;100778.22;5216473;28;20387;-71
2022/09/13 02:12:15;;;;;;;9.38;7.70;;;;;;;16.30;100.00;100778.22;5218071;28;20034;-71
2022/09/13 02:15:19;;;;;;;9.80;7.75;;;;;;;16.37;100.00;100779.28;5221360;28;20861;-71
2022/09/13 02:18:14;;;;;;;8.20;7.17;;;;;;;16.37;100.00;100773.03;5235415;28;20463;-71
2022/09/13 02:20:49;;;;;;;8.38;7.50;;;;;;;16.27;100.00;100779.38;5231384;28;20334;-71
2022/09/13 02:23:31;;;;;;;8.82;6.85;;;;;;;16.37;100.00;100781.13;5242900;28;20717;-71
2022/09/13 02:26:05;;;;;;;9.82;7.82;;;;;;;16.29;100.00;100786.47;5226025;28;20426;-71
2022/09/13 02:28:42;;;;;;;9.50;7.75;;;;;;;16.31;100.00;100782.59;5239894;28;20033;-71
2022/09/13 02:31:17;;;;;;;10.07;7.05;;;;;;;16.38;100.00;100785.53;5235506;28;20487;-71
2022/09/13 02:33:58;;;;;;;9.00;7.82;;;;;;;16.45;100.00;100786.56;5231111;28;20120;-71
2022/09/13 02:36:35;;;;;;;7.78;7.00;;;;;;;16.39;100.00;100784.50;5225105;28;20046;-71
2022/09/13 02:39:13;;;;;;;8.68;7.15;;;;;;;16.33;100.00;100795.91;5239363;28;20548;-71
2022/09/13 02:41:52;;;;;;;8.93;7.18;;;;;;;16.45;100.00;100802.72;5239118;28;20664;-71
2022/09/13 02:44:34;;;;;;;10.80;7.68;;;;;;;16.34;100.00;100798.44;5217512;28;20049;-71
2022/09/13 02:47:11;;;;;;;10.38;6.70;;;;;;;16.38;100.00;100801.69;5220897;28;20583;-71
2022/09/13 02:50:18;;;;;;;9.02;7.22;;;;;;;16.37;100.00;100806.19;5219313;28;20028;-71
2022/09/13 02:53:01;;;;;;;8.45;7.10;;;;;;;16.36;100.00;100801.00;5221907;28;20025;-70
2022/09/13 02:56:17;;;;;;;8.23;7.07;;;;;;;16.39;100.00;100803.34;5235261;28;20025;-71
2022/09/13 02:59:14;;;;;;;8.73;6.90;;;;;;;16.40;100.00;100807.75;5217947;28;20068;-71
2022/09/13 03:01:55;;;;;;;11.27;7.10;;;;;;;16.36;100.00;100807.22;5221553;28;20030;-71
2022/09/13 03:04:28;;;;;;;8.43;6.90;;;;;;;16.32;100.00;100797.75;5221390;28;20038;-71
2022/09/13 03:07:00;;;;;;;10.50;7.10;;;;;;;16.37;100.00;100805.34;5221135;28;20048;-70
2022/09/13 03:09:32;;;;;;;9.40;6.25;;;;;;;16.39;100.00;100798.81;5219891;28;20034;-71
2022/09/13 03:12:06;;;;;;;9.07;6.90;;;;;;;16.39;100.00;100801.50;5221284;28;20379;-71
2022/09/13 03:14:53;;;;;;;9.70;6.78;;;;;;;16.34;100.00;100801.16;5221339;28;20377;-72
2022/09/13 03:17:24;;;;;;;9.95;7.47;;;;;;;16.34;100.00;100793.06;5221302;28;20050;-71
2022/09/13 03:20:07;;;;;;;9.45;7.00;;;;;;;16.36;100.00;100795.59;5220627;28;20139;-71
2022/09/13 03:22:56;;;;;;;9.25;6.82;;;;;;;16.44;100.00;100788.41;5222168;28;20037;-71
2022/09/13 03:25:39;;;;;;;8.02;6.97;;;;;;;16.42;100.00;100803.06;5219150;28;20037;-71
2022/09/13 03:28:32;;;;;;;9.52;6.43;;;;;;;16.48;100.00;100785.44;5221430;28;20368;-71
2022/09/13 03:31:12;;;;;;;8.95;6.97;;;;;;;16.36;100.00;100787.53;5220198;28;20029;-71
2022/09/13 03:34:24;;;;;;;8.02;6.70;;;;;;;16.46;100.00;100790.97;5219071;28;20542;-71
2022/09/13 03:37:09;;;;;;;8.85;6.70;;;;;;;16.37;100.00;100778.44;5224080;28;20041;-71
2022/09/13 03:39:47;;;;;;;10.75;7.00;;;;;;;16.40;100.00;100775.44;5221129;28;20428;-71
2022/09/13 03:42:36;;;;;;;9.52;6.32;;;;;;;16.37;100.00;100798.13;5218034;28;20017;-71
2022/09/13 03:45:10;;;;;;;9.38;6.65;;;;;;;16.38;100.00;100788.22;5219463;28;20072;-71
2022/09/13 03:47:44;;;;;;;10.10;7.32;;;;;;;16.37;100.00;100786.50;5217790;28;20030;-71
2022/09/13 03:50:20;;;;;;;10.18;6.53;;;;;;;16.31;100.00;100790.66;5224258;28;20068;-71
2022/09/13 03:52:59;;;;;;;7.97;6.72;;;;;;;16.31;100.00;100782.59;5221811;28;20025;-71
2022/09/13 03:55:33;;;;;;;10.00;6.43;;;;;;;16.48;100.00;100762.03;5226040;28;20036;-71
2022/09/13 03:58:05;;;;;;;8.68;6.43;;;;;;;16.41;100.00;100774.41;5223502;28;20494;-71
2022/09/13 04:00:37;;;;;;;7.47;6.45;;;;;;;16.52;100.00;100767.94;5223970;28;20036;-71
2022/09/13 04:03:08;;;;;;;8.13;6.57;;;;;;;16.46;100.00;100774.81;5224384;28;20026;-71
2022/09/13 04:05:40;;;;;;;8.98;6.45;;;;;;;16.34;100.00;100781.44;5226163;28;20505;-71
2022/09/13 04:08:11;;;;;;;7.93;6.55;;;;;;;16.38;100.00;100780.13;5226094;28;20035;-71
2022/09/13 04:10:42;;;;;;;9.73;6.60;;;;;;;16.33;100.00;100785.13;5221504;28;21969;-71
2022/09/13 04:13:14;;;;;;;10.15;7.00;;;;;;;16.41;100.00;100786.03;5224477;28;20029;-71
2022/09/13 04:15:45;;;;;;;9.23;7.28;;;;;;;16.35;100.00;100801.97;5226678;28;20022;-72
2022/09/13 04:18:17;;;;;;;8.93;6.65;;;;;;;16.31;100.00;100795.22;5225129;28;20022;-71
2022/09/13 04:20:56;;;;;;;8.63;6.95;;;;;;;16.42;100.00;100805.75;5239984;28;20413;-71
2022/09/13 04:23:29;;;;;;;9.55;7.35;;;;;;;16.30;100.00;100810.53;5234665;28;20030;-71
2022/09/13 04:26:04;;;;;;;8.10;6.50;;;;;;;16.33;100.00;100807.50;5244655;28;20510;-71
2022/09/13 04:28:36;;;;;;;8.77;6.57;;;;;;;16.36;100.00;100806.38;5230895;28;20087;-71
2022/09/13 04:31:07;;;;;;;8.50;7.03;;;;;;;16.22;100.00;100815.81;5248089;28;20443;-71
2022/09/13 04:33:40;;;;;;;9.35;7.28;;;;;;;16.16;100.00;100811.06;5237158;28;20495;-71
2022/09/13 04:36:11;;;;;;;8.27;7.10;;;;;;;16.23;100.00;100821.06;5246548;28;20033;-71
2022/09/13 04:38:42;;;;;;;10.60;7.72;;;;;;;16.17;100.00;100820.84;5244068;28;20045;-71
2022/09/13 04:41:14;;;;;;;9.95;7.70;;;;;;;16.09;100.00;100824.31;5242699;28;20079;-71
2022/09/13 04:43:49;;;;;;;9.57;7.80;;;;;;;16.17;100.00;100826.25;5243706;28;20032;-71
2022/09/13 04:46:20;;;;;;;10.88;7.85;;;;;;;16.06;100.00;100830.00;5218725;28;20036;-71
2022/09/13 04:48:52;;;;;;;9.45;7.28;;;;;;;16.05;100.00;100823.78;5219927;28;20029;-71
2022/09/13 04:51:24;;;;;;;9.02;7.68;;;;;;;16.01;100.00;100824.22;5225237;28;20033;-71
2022/09/13 04:53:56;;;;;;;10.98;7.63;;;;;;;16.00;100.00;100822.53;5236207;28;20024;-71
2022/09/13 04:56:27;;;;;;;9.40;8.13;;;;;;;16.11;100.00;100816.94;5233015;28;20163;-71
2022/09/13 04:58:58;;;;;;;9.55;7.63;;;;;;;16.01;100.00;100821.53;5238234;28;20371;-71
2022/09/13 05:01:29;;;;;;;9.98;7.13;;;;;;;16.01;100.00;100816.16;5230132;28;20048;-71
2022/09/13 05:04:01;;;;;;;10.40;7.50;;;;;;;16.02;100.00;100818.69;5233126;28;20026;-71
2022/09/13 05:06:33;;;;;;;9.05;7.25;;;;;;;15.99;100.00;100815.44;5226729;28;20269;-71
2022/09/13 05:09:05;;;;;;;9.77;7.53;;;;;;;16.02;100.00;100815.16;5222908;28;20029;-71
2022/09/13 05:11:36;;;;;;;11.23;8.02;;;;;;;15.97;100.00;100809.38;5236679;28;20033;-71
2022/09/13 05:14:09;;;;;;;8.95;7.10;;;;;;;15.98;100.00;100814.63;5216787;28;20029;-70
2022/09/13 05:16:41;;;;;;;9.03;6.93;;;;;;;16.00;100.00;100819.84;5233387;28;20034;-71
2022/09/13 05:19:12;;;;;;;10.20;7.78;;;;;;;15.98;100.00;100816.47;5239234;28;20025;-71
2022/09/13 05:21:43;;;;;;;11.40;7.85;;;;;;;15.98;100.00;100805.69;5225960;28;20372;-71
2022/09/13 05:24:15;;;;;;;11.18;7.93;;;;;;;16.08;100.00;100823.44;5231651;28;20257;-71
2022/09/13 05:26:46;;;;;;;9.60;7.97;;;;;;;16.07;100.00;100818.25;5223245;28;20108;-71
2022/09/13 05:29:18;;;;;;;9.52;7.18;;;;;;;16.01;100.00;100821.53;5221221;28;20059;-71
2022/09/13 05:31:49;;;;;;;10.85;7.43;;;;;;;16.03;100.00;100822.22;5222745;28;20368;-70
2022/09/13 05:34:20;;;;;;;11.05;8.20;;;;;;;16.01;100.00;100822.41;5227687;28;20072;-71
2022/09/13 05:36:52;;;;;;;10.35;7.95;;;;;;;16.13;100.00;100824.81;5237289;28;20021;-71
2022/09/13 05:39:23;;;;;;;11.25;8.65;;;;;;;16.01;100.00;100827.78;5227282;28;20383;-71
2022/09/13 05:41:55;;;;;;;10.55;7.72;;;;;;;16.00;100.00;100828.75;5216406;28;20072;-71
2022/09/13 05:44:26;;;;;;;12.23;8.95;;;;;;;16.02;100.00;100834.00;5208092;28;1027558;-71
2022/09/13 05:46:57;;;;;;;10.57;7.88;;;;;;;16.04;100.00;100837.38;5223078;28;20044;-71
2022/09/13 05:49:29;;;;;;;11.95;8.40;;;;;;;16.06;100.00;100835.38;5232069;28;20102;-71
2022/09/13 05:52:00;;;;;;;11.65;8.38;;;;;;;16.06;100.00;100835.38;5225050;28;20055;-71
2022/09/13 05:54:33;;;;;;;10.35;7.78;;;;;;;16.08;100.00;100833.38;5227057;28;20032;-71
2022/09/13 05:57:04;;;;;;;9.57;7.88;;;;;;;16.09;100.00;100829.69;5230971;28;20021;-71
2022/09/13 05:59:35;;;;;;;10.55;8.07;;;;;;;16.09;100.00;100835.09;5226565;28;20025;-70
2022/09/13 06:02:09;;;;;;;12.70;8.68;;;;;;;16.12;100.00;100837.44;5234942;28;20045;-70
2022/09/13 06:04:40;;;;;;;14.07;8.45;;;;;;;16.16;100.00;100830.75;5224406;28;20057;-71
2022/09/13 06:07:11;;;;;;;12.75;8.18;;;;;;;16.16;100.00;100836.13;5233334;28;20076;-70
2022/09/13 06:09:42;;;;;;;11.73;9.35;;;;;;;16.18;100.00;100834.13;5245083;28;20075;-70
2022/09/13 06:12:14;;;;;;;13.07;9.70;;;;;;;16.21;100.00;100827.63;5228419;28;20032;-70
2022/09/13 06:14:45;;;;;;;16.45;10.23;;;;;;;16.21;100.00;100833.84;5225271;28;20032;-71
2022/09/13 06:17:16;;;;;;;16.75;10.27;;;;;;;16.21;100.00;100831.16;5233502;28;20033;-70
2022/09/13 06:19:47;;;;;;;13.20;10.00;;;;;;;16.24;100.00;100835.38;5239543;28;20056;-71
2022/09/13 06:22:19;;;;;;;12.52;9.32;;;;;;;16.26;100.00;100827.97;5236096;28;20029;-72
2022/09/13 06:24:50;;;;;;;15.07;10.10;;;;;;;16.29;100.00;100830.38;5231702;28;20028;-70
2022/09/13 06:27:21;;;;;;;11.02;8.90;;;;;;;16.30;100.00;100832.06;5237000;28;20073;-70
2022/09/13 06:29:54;;;;;;;11.63;9.73;;;;;;;16.34;100.00;100827.19;5225924;28;20029;-70
2022/09/13 06:32:25;;;;;;;12.80;10.48;;;;;;;16.35;100.00;100824.34;5220256;28;20468;-70
2022/09/13 06:34:56;;;;;;;12.23;10.07;;;;;;;16.37;100.00;100818.81;5220042;28;20087;-70
2022/09/13 06:37:28;;;;;;;14.95;10.60;;;;;;;16.41;100.00;100829.13;5234531;28;20407;-70
2022/09/13 06:39:59;;;;;;;13.40;9.95;;;;;;;16.46;100.00;100821.41;5235688;28;20092;-71
2022/09/13 06:42:33;;;;;;;15.50;9.85;;;;;;;16.48;100.00;100813.19;5241802;28;20101;-71
2022/09/13 06:45:05;;;;;;;11.70;9.35;;;;;;;16.51;100.00;100822.78;5232952;28;20051;-70
2022/09/13 06:47:36;;;;;;;15.35;9.68;;;;;;;16.55;100.00;100821.47;5236651;28;20502;-70
2022/09/13 06:50:08;;;;;;;12.23;9.93;;;;;;;16.58;100.00;100832.78;5238553;28;20041;-70
2022/09/13 06:52:39;;;;;;;11.05;9.38;;;;;;;16.60;100.00;100825.38;5235218;28;20514;-71
2022/09/13 06:55:10;;;;;;;12.98;10.43;;;;;;;16.63;100.00;100822.41;5226237;28;20685;-70
2022/09/13 06:57:42;;;;;;;13.32;9.77;;;;;;;16.66;100.00;100840.06;5254966;28;20029;-71
2022/09/13 07:00:14;;;;;;;16.48;10.93;;;;;;;16.70;100.00;100841.44;5235209;28;20078;-71
2022/09/13 07:02:49;;;;;;;16.50;10.63;;;;;;;16.73;100.00;100833.06;5247028;28;20063;-71
2022/09/13 07:05:21;;;;;;;13.32;10.40;;;;;;;16.75;100.00;100828.38;5224273;28;20140;-71
2022/09/13 07:07:52;;;;;;;17.10;10.77;;;;;;;16.78;100.00;100832.59;5229610;28;20040;-71
2022/09/13 07:10:23;;;;;;;15.35;10.25;;;;;;;16.80;100.00;100833.28;5236183;28;20045;-71
2022/09/13 07:12:54;;;;;;;13.32;11.23;;;;;;;16.81;100.00;100832.28;5233204;28;20053;-71
2022/09/13 07:15:26;;;;;;;14.07;10.60;;;;;;;16.86;100.00;100827.31;5222610;28;20522;-71
2022/09/13 07:17:57;;;;;;;14.13;11.43;;;;;;;16.91;100.00;100826.81;5233131;28;20040;-71
2022/09/13 07:20:28;;;;;;;15.23;11.63;;;;;;;16.95;100.00;100822.78;5229864;28;21701;-72
2022/09/13 07:23:00;;;;;;;15.50;11.85;;;;;;;17.00;100.00;100828.56;5228009;28;20022;-72
2022/09/13 07:25:31;;;;;;;15.77;11.10;;;;;;;17.04;100.00;100830.75;5223868;28;20040;-72
2022/09/13 07:28:02;;;;;;;16.77;12.80;;;;;;;17.09;100.00;100832.16;5226830;28;20033;-72
2022/09/13 07:30:33;;;;;;;16.13;12.70;;;;;;;17.12;100.00;100831.81;5242441;28;20089;-72
2022/09/13 07:33:04;;;;;;;17.13;12.93;;;;;;;17.17;100.00;100835.72;5230079;28;20026;-72
2022/09/13 07:35:36;;;;;;;18.75;14.00;;;;;;;17.32;100.00;100841.38;5237141;28;20064;-72
2022/09/13 07:38:07;;;;;;;21.27;14.60;;;;;;;17.27;100.00;100840.16;5228530;28;20034;-71
2022/09/13 07:40:38;;;;;;;16.95;13.90;;;;;;;17.34;100.00;100841.19;5224419;28;20060;-72
2022/09/13 07:43:09;;;;;;;17.38;14.93;;;;;;;17.39;100.00;100844.25;5232997;28;20113;-70
2022/09/13 07:45:41;;;;;;;17.23;14.25;;;;;;;17.56;100.00;100845.16;5228882;28;20046;-70
2022/09/13 07:48:12;;;;;;;16.20;14.27;;;;;;;17.55;100.00;100849.72;5231641;28;20153;-71
2022/09/13 07:50:43;;;;;;;19.35;16.63;;;;;;;17.68;100.00;100856.50;5237388;28;20048;-71
2022/09/13 07:53:14;;;;;;;21.10;16.17;;;;;;;17.77;100.00;100859.03;5232655;28;20395;-71
2022/09/13 07:55:46;;;;;;;19.60;16.45;;;;;;;17.79;100.00;100851.63;5217057;28;20517;-72
2022/09/13 07:58:17;;;;;;;20.65;16.33;;;;;;;17.83;100.00;100860.25;5220711;28;20026;-71
2022/09/13 08:00:48;;;;;;;22.17;16.95;;;;;;;17.91;100.00;100854.91;5230317;28;20033;-70
2022/09/13 08:03:20;;;;;;;19.77;17.40;;;;;;;17.97;100.00;100864.22;5237254;28;20060;-70
2022/09/13 08:05:51;;;;;;;24.40;17.98;;;;;;;18.05;100.00;100860.69;5223579;28;20430;-71
2022/09/13 08:08:22;;;;;;;21.08;17.85;;;;;;;18.10;100.00;100864.59;5234788;28;20407;-71
2022/09/13 08:10:54;;;;;;;22.02;17.92;;;;;;;18.16;100.00;100863.91;5227551;28;20383;-71
2022/09/13 08:13:26;;;;;;;22.27;19.50;;;;;;;18.28;100.00;100860.88;5225986;28;20021;-71
2022/09/13 08:16:03;;;;;;;23.52;19.05;;;;;;;18.51;100.00;100867.31;5235782;28;20021;-70
2022/09/13 08:18:34;;;;;;;23.25;18.27;;;;;;;18.54;100.00;100871.50;5238510;28;20029;-71
2022/09/13 08:21:05;;;;;;;24.05;19.88;;;;;;;18.51;100.00;100861.91;5242746;28;20036;-70
2022/09/13 08:23:36;;;;;;;24.58;20.70;;;;;;;18.52;100.00;100865.44;5228242;28;20375;-70
2022/09/13 08:26:09;;;;;;;25.13;20.35;;;;;;;18.64;100.00;100855.13;5231927;28;20033;-70
2022/09/13 08:28:41;;;;;;;25.00;21.38;;;;;;;18.72;100.00;100868.66;5228976;28;20022;-71
2022/09/13 08:31:16;;;;;;;24.65;21.73;;;;;;;18.90;100.00;100873.91;5237597;28;20049;-71
2022/09/13 08:33:48;;;;;;;23.52;20.90;;;;;;;18.86;100.00;100876.09;5216420;28;21370;-71
2022/09/13 08:36:22;;;;;;;24.92;22.17;;;;;;;19.07;100.00;100869.31;5218975;28;20038;-71
2022/09/13 08:38:57;;;;;;;25.25;22.00;;;;;;;19.03;100.00;100876.09;5235362;28;20708;-71
2022/09/13 08:41:43;;;;;;;26.42;23.02;;;;;;;19.12;100.00;100867.78;5235259;28;20033;-71
2022/09/13 08:44:29;;;;;;;27.48;23.00;;;;;;;19.23;100.00;100882.78;5236795;28;20064;-71
2022/09/13 08:47:11;;;;;;;28.50;22.58;;;;;;;19.39;100.00;100881.91;5235648;28;20040;-71
2022/09/13 08:49:47;;;;;;;27.40;22.70;;;;;;;19.49;100.00;100887.09;5239770;28;20036;-71
2022/09/13 08:52:33;;;;;;;27.67;22.33;;;;;;;19.59;100.00;100880.44;5234420;28;20025;-72
2022/09/13 08:55:22;;;;;;;26.73;23.10;;;;;;;19.69;100.00;100882.94;5230279;28;20021;-71
2022/09/13 08:58:15;;;;;;;25.90;22.02;;;;;;;19.78;100.00;100872.97;5221836;28;20034;-71
2022/09/13 09:00:54;;;;;;;25.42;21.90;;;;;;;19.95;100.00;100871.00;5243979;28;20040;-72
2022/09/13 09:03:45;;;;;;;24.85;21.92;;;;;;;19.94;100.00;100874.72;5245222;28;20118;-72
2022/09/13 09:06:17;;;;;;;26.65;22.58;;;;;;;20.01;100.00;100874.88;5241399;28;20024;-71
2022/09/13 09:08:58;;;;;;;27.50;22.33;;;;;;;20.05;100.00;100871.63;5224750;28;20039;-72
2022/09/13 09:11:46;;;;;;;28.13;21.60;;;;;;;20.10;100.00;100860.25;5242550;28;20033;-71
2022/09/13 09:14:30;;;;;;;23.55;19.23;;;;;;;20.19;100.00;100856.44;5241035;28;20029;-71
2022/09/13 09:17:19;;;;;;;24.88;20.70;;;;;;;20.18;100.00;100849.34;5226598;28;20570;-71
2022/09/13 09:20:33;;;;;;;21.38;18.58;;;;;;;20.20;100.00;100854.59;5233550;28;20605;-71
2022/09/13 09:23:18;;;;;;;25.10;20.75;;;;;;;20.21;100.00;100848.97;5225652;28;20021;-71
2022/09/13 09:25:55;;;;;;;24.88;20.77;;;;;;;20.38;100.00;100849.69;5233723;28;20503;-71
2022/09/13 09:28:30;;;;;;;24.60;19.92;;;;;;;20.58;100.00;100855.47;5226918;28;20578;-70
2022/09/13 09:31:24;;;;;;;24.05;20.60;;;;;;;20.49;100.00;100857.41;5235933;28;20094;-70
2022/09/13 09:34:01;;;;;;;24.75;19.40;;;;;;;20.61;100.00;100855.13;5238277;28;20049;-70
2022/09/13 09:36:45;;;;;;;25.40;19.70;;;;;;;20.63;100.00;100858.50;5246657;28;20131;-70
2022/09/13 09:39:16;;;;;;;24.57;19.47;;;;;;;20.72;100.00;100862.00;5236472;28;20104;-71
2022/09/13 09:41:47;;;;;;;21.58;19.27;;;;;;;20.72;100.00;100859.28;5227096;28;20108;-70
2022/09/13 09:44:32;;;;;;;19.98;17.75;;;;;;;20.88;100.00;100852.84;5238517;28;20294;-71
2022/09/13 09:47:11;;;;;;;21.30;17.02;;;;;;;21.01;100.00;100858.47;5245677;28;20112;-71
2022/09/13 09:52:50;;;;;;;20.63;16.35;;;;;;;21.10;100.00;100851.94;5233440;28;20045;-71
2022/09/13 09:55:33;;;;;;;17.43;14.40;;;;;;;21.19;100.00;100850.00;5219264;28;20080;-71
2022/09/13 09:58:08;;;;;;;16.50;13.77;;;;;;;21.32;100.00;100850.19;5232683;28;20041;-70
2022/09/13 10:00:50;;;;;;;16.73;13.70;;;;;;;21.37;100.00;100856.91;5244847;28;20033;-71
2022/09/13 10:03:30;;;;;;;17.05;13.13;;;;;;;21.46;100.00;100853.09;5225519;28;20103;-71
2022/09/13 10:06:13;;;;;;;18.15;14.23;;;;;;;21.46;100.00;100855.81;5224098;28;20026;-71
2022/09/13 10:08:56;;;;;;;19.25;15.60;;;;;;;21.65;100.00;100857.06;5228629;28;20065;-70
2022/09/13 10:11:47;;;;;;;18.27;15.15;;;;;;;21.67;100.00;100846.84;5235557;28;20024;-71
2022/09/13 10:14:41;;;;;;;15.65;13.27;;;;;;;21.70;100.00;100847.31;5229586;28;20041;-70
2022/09/13 10:17:19;;;;;;;15.20;12.57;;;;;;;21.82;100.00;100835.97;5233096;28;20033;-70
2022/09/13 10:19:54;;;;;;;15.77;12.55;;;;;;;21.73;100.00;100844.22;5235700;28;20044;-70
2022/09/13 10:22:27;;;;;;;17.33;13.52;;;;;;;21.68;100.00;100835.81;5237694;28;20033;-70
2022/09/13 10:25:21;;;;;;;18.27;14.82;;;;;;;21.85;100.00;100846.47;5227871;28;20036;-70
2022/09/13 10:27:59;;;;;;;17.10;14.05;;;;;;;21.94;100.00;100848.03;5232957;28;20032;-70
2022/09/13 10:30:43;;;;;;;15.82;11.57;;;;;;;22.00;100.00;100846.41;5236258;28;20117;-70
2022/09/13 10:33:42;;;;;;;15.98;13.88;;;;;;;21.96;100.00;100847.81;5230721;28;20040;-70
2022/09/13 10:36:19;;;;;;;18.95;14.35;;;;;;;21.87;100.00;100856.09;5231337;28;20501;-71
2022/09/13 10:38:58;;;;;;;17.77;14.13;;;;;;;21.96;100.00;100848.69;5228546;28;20048;-71
2022/09/13 10:41:37;;;;;;;17.63;14.30;;;;;;;21.98;100.00;100851.22;5232143;28;20024;-71
2022/09/13 10:44:27;;;;;;;21.77;14.85;;;;;;;21.87;100.00;100845.22;5239058;28;20107;-71
2022/09/13 10:47:03;;;;;;;20.20;15.98;;;;;;;21.97;100.00;100849.50;5235829;28;20025;-72
2022/09/13 10:49:41;;;;;;;17.65;14.13;;;;;;;22.02;100.00;100853.34;5222502;28;20033;-72
2022/09/13 10:52:31;;;;;;;16.95;14.25;;;;;;;21.96;100.00;100853.25;5234888;28;20057;-71
2022/09/13 10:55:18;;;;;;;17.90;13.95;;;;;;;21.95;100.00;100843.44;5233419;28;20025;-72
2022/09/13 10:57:51;;;;;;;16.38;13.05;;;;;;;21.95;100.00;100841.53;5218063;28;20455;-71
2022/09/13 11:00:45;;;;;;;18.52;13.82;;;;;;;21.88;100.00;100835.19;5229585;28;20440;-71
2022/09/13 11:03:40;;;;;;;;;;;;;;;21.97;100.00;100834.03;5225267;28;20317;-72
2022/09/13 11:06:38;;;;;;;14.32;11.48;;;;;;;21.88;100.00;100830.63;5226168;28;19913;-71
2022/09/13 11:09:33;;;;;;;13.63;10.65;;;;;;;21.97;100.00;100823.19;5243337;28;20493;-71
2022/09/13 11:12:21;;;;;;;14.75;10.80;;;;;;;22.20;100.00;100820.28;5226493;28;20034;-71
2022/09/13 11:15:17;;;;;;;16.17;11.65;;;;;;;22.06;100.00;100813.03;5219803;28;20065;-71
2022/09/13 11:18:00;;;;;;;15.13;11.30;;;;;;;22.17;100.00;100817.09;5232389;28;20471;-72
2022/09/13 11:20:53;;;;;;;15.93;11.55;;;;;;;22.28;100.00;100811.16;5220734;28;20145;-72
2022/09/13 11:23:50;;;;;;;13.23;9.77;;;;;;;22.50;100.00;100810.13;5231674;28;20044;-72
2022/09/13 11:26:32;;;;;;;14.77;10.80;;;;;;;22.40;100.00;100806.03;5237381;28;20033;-72
2022/09/13 11:29:31;;;;;;;12.48;9.35;;;;;;;22.52;100.00;100802.59;5230083;28;20029;-72
2022/09/13 11:32:14;;;;;;;11.75;8.32;;;;;;;22.59;98.03;100809.97;5240012;28;20114;-72
2022/09/13 11:35:07;;;;;;;10.38;8.90;;;;;;;22.70;98.13;100807.56;5229435;28;20118;-72
2022/09/13 11:37:46;;;;;;;12.88;8.32;;;;;;;22.83;94.71;100801.34;5226043;28;20057;-72
2022/09/13 11:40:48;;;;;;;10.98;8.43;;;;;;;23.02;96.39;100804.41;5237291;28;20037;-72
2022/09/13 11:43:35;;;;;;;10.23;8.45;;;;;;;23.13;96.26;100803.00;5224333;28;20046;-72
2022/09/13 11:46:21;;;;;;;12.50;10.18;;;;;;;23.08;97.87;100803.63;5233892;28;20045;-72
2022/09/13 11:49:25;;;;;;;13.32;9.98;;;;;;;23.16;97.35;100808.91;5225473;28;20318;-73
2022/09/13 11:52:12;;;;;;;9.02;6.82;;;;;;;23.17;92.91;100813.31;5225198;28;20117;-72
2022/09/13 11:55:19;;;;;;;7.30;5.40;;;;;;;23.19;93.99;100804.97;5241339;28;20037;-72
2022/09/13 11:57:54;;;;;;;12.00;5.93;;;;;;;23.17;90.21;100801.59;5236088;28;20345;-71
2022/09/13 12:00:41;;;;;;;6.40;5.50;;;;;;;23.41;92.88;100803.78;5236833;28;20076;-72
2022/09/13 12:03:29;;;;;;;9.32;6.88;;;;;;;23.23;93.91;100803.50;5224038;28;20045;-72